createdAt,value
2017-12-01T00:01:47.733Z,44.80
2017-12-01T00:02:47.662Z,46.70
2017-12-01T00:04:40.944Z,43.20
2017-12-01T00:05:40.852Z,46.50
2017-12-01T00:07:34.104Z,42.50
2017-12-01T00:08:34.031Z,47.40
2017-12-01T00:10:27.394Z,45.70
2017-12-01T00:11:27.304Z,44.70
2017-12-01T00:13:20.557Z,47.00
2017-12-01T00:14:20.485Z,46.90
2017-12-01T00:16:13.756Z,45.70
2017-12-01T00:17:13.662Z,47.80
2017-12-01T00:19:06.905Z,49.20
2017-12-01T00:20:06.831Z,48.50
2017-12-01T00:22:00.104Z,43.60
2017-12-01T00:23:00.010Z,47.90
2017-12-01T00:24:53.300Z,50.70
2017-12-01T00:25:53.188Z,52.30
2017-12-01T00:27:46.438Z,46.50
2017-12-01T00:28:46.368Z,47.70
2017-12-01T00:30:39.635Z,49.60
2017-12-01T00:31:39.545Z,45.70
2017-12-01T00:33:32.794Z,47.70
2017-12-01T00:34:32.723Z,49.70
2017-12-01T00:36:25.993Z,49.70
2017-12-01T00:37:25.902Z,51.40
2017-12-01T00:39:19.144Z,53.70
2017-12-01T00:40:19.070Z,50.40
2017-12-01T00:42:12.338Z,45.20
2017-12-01T00:43:12.247Z,48.60
2017-12-01T00:45:05.491Z,53.60
2017-12-01T00:46:05.416Z,54.60
2017-12-01T00:47:58.685Z,51.90
2017-12-01T00:48:58.624Z,49.60
2017-12-01T00:50:51.864Z,48.70
2017-12-01T00:51:51.774Z,48.00
2017-12-01T00:53:45.043Z,50.60
2017-12-01T00:54:44.952Z,49.40
2017-12-01T00:56:38.222Z,51.80
2017-12-01T00:57:38.132Z,48.50
2017-12-01T00:59:31.413Z,47.30
2017-12-01T01:00:31.337Z,46.00
2017-12-01T01:02:24.603Z,46.50
2017-12-01T01:03:24.510Z,46.20
2017-12-01T01:05:17.760Z,50.20
2017-12-01T01:06:17.692Z,46.50
2017-12-01T01:08:10.958Z,52.40
2017-12-01T01:09:10.869Z,47.80
2017-12-01T01:11:04.121Z,47.80
2017-12-01T01:12:04.049Z,50.90
2017-12-01T01:13:57.395Z,49.00
2017-12-01T01:14:57.302Z,50.60
2017-12-01T01:16:50.554Z,49.40
2017-12-01T01:17:50.481Z,46.10
2017-12-01T01:19:43.747Z,49.50
2017-12-01T01:20:43.649Z,49.60
2017-12-01T01:22:36.934Z,48.30
2017-12-01T01:23:36.832Z,48.40
2017-12-01T01:25:30.082Z,46.50
2017-12-01T01:26:30.010Z,44.90
2017-12-01T01:28:23.272Z,47.80
2017-12-01T01:29:23.179Z,52.30
2017-12-01T01:31:16.420Z,49.00
2017-12-01T01:32:16.347Z,47.60
2017-12-01T01:34:09.606Z,48.10
2017-12-01T01:35:09.517Z,46.80
2017-12-01T01:37:02.760Z,50.20
2017-12-01T01:38:02.685Z,52.10
2017-12-01T01:39:55.946Z,53.30
2017-12-01T01:40:55.853Z,50.20
2017-12-01T01:42:49.107Z,47.40
2017-12-01T01:43:49.033Z,52.10
2017-12-01T01:45:42.296Z,49.90
2017-12-01T01:46:42.200Z,50.50
2017-12-01T01:48:35.459Z,49.90
2017-12-01T01:49:35.369Z,52.10
2017-12-01T01:51:28.619Z,50.30
2017-12-01T01:52:28.547Z,48.20
2017-12-01T01:54:21.817Z,48.10
2017-12-01T01:55:21.726Z,47.00
2017-12-01T01:57:14.978Z,46.50
2017-12-01T01:58:14.905Z,49.00
2017-12-01T02:00:08.175Z,47.70
2017-12-01T02:01:08.084Z,45.60
2017-12-01T02:03:01.374Z,49.80
2017-12-01T02:04:01.302Z,46.30
2017-12-01T02:05:54.564Z,45.60
2017-12-01T02:06:54.468Z,49.40
2017-12-01T02:08:47.720Z,47.80
2017-12-01T02:09:47.648Z,47.40
2017-12-01T02:11:40.922Z,46.10
2017-12-01T02:12:40.826Z,47.30
2017-12-01T02:14:34.093Z,44.90
2017-12-01T02:15:34.003Z,47.00
2017-12-01T02:17:27.255Z,45.40
2017-12-01T02:18:27.180Z,47.40
2017-12-01T02:20:20.451Z,45.80
2017-12-01T02:21:20.360Z,48.80
2017-12-01T02:23:13.630Z,42.20
2017-12-01T02:24:13.560Z,45.70
2017-12-01T02:26:06.817Z,51.00
2017-12-01T02:27:06.726Z,51.30
2017-12-01T02:28:59.978Z,46.80
2017-12-01T02:29:59.907Z,44.70
2017-12-01T02:31:53.175Z,44.40
2017-12-01T02:32:53.082Z,44.70
2017-12-01T02:34:46.327Z,43.40
2017-12-01T02:35:46.252Z,44.60
2017-12-01T02:37:39.522Z,42.50
2017-12-01T02:38:39.431Z,42.90
2017-12-01T02:40:32.698Z,49.60
2017-12-01T02:41:32.608Z,44.50
2017-12-01T02:43:25.859Z,46.90
2017-12-01T02:44:25.787Z,48.00
2017-12-01T02:46:19.046Z,49.60
2017-12-01T02:47:18.954Z,50.10
2017-12-01T02:49:12.204Z,50.70
2017-12-01T02:50:12.132Z,51.70
2017-12-01T02:52:05.400Z,53.40
2017-12-01T02:53:05.310Z,52.80
2017-12-01T02:54:58.553Z,48.30
2017-12-01T02:55:58.477Z,51.00
2017-12-01T02:57:51.747Z,46.70
2017-12-01T02:58:51.656Z,46.30
2017-12-01T03:00:44.900Z,48.40
2017-12-01T03:01:44.822Z,50.90
2017-12-01T03:03:38.083Z,49.10
2017-12-01T03:04:37.988Z,48.60
2017-12-01T03:06:31.261Z,52.10
2017-12-01T03:07:31.173Z,50.00
2017-12-01T03:09:24.412Z,46.10
2017-12-01T03:10:24.337Z,50.20
2017-12-01T03:12:17.605Z,51.10
2017-12-01T03:13:17.513Z,48.40
2017-12-01T03:15:10.757Z,51.00
2017-12-01T03:16:10.682Z,50.50
2017-12-01T03:18:03.952Z,49.50
2017-12-01T03:19:03.859Z,48.20
2017-12-01T03:20:57.122Z,48.80
2017-12-01T03:21:57.049Z,48.80
2017-12-01T03:23:50.319Z,47.10
2017-12-01T03:24:50.228Z,48.90
2017-12-01T03:26:43.482Z,50.00
2017-12-01T03:27:43.406Z,55.00
2017-12-01T03:29:36.668Z,54.40
2017-12-01T03:30:36.578Z,50.70
2017-12-01T03:32:29.852Z,48.20
2017-12-01T03:33:29.756Z,50.50
2017-12-01T03:35:22.997Z,50.90
2017-12-01T03:36:22.923Z,51.80
2017-12-01T03:38:16.194Z,51.30
2017-12-01T03:39:16.101Z,49.60
2017-12-01T03:41:09.353Z,52.70
2017-12-01T03:42:09.281Z,49.20
2017-12-01T03:44:02.560Z,54.20
2017-12-01T03:45:02.470Z,55.80
2017-12-01T03:46:55.722Z,53.40
2017-12-01T03:47:55.649Z,51.00
2017-12-01T03:49:48.909Z,50.60
2017-12-01T03:50:48.818Z,51.20
2017-12-01T03:52:42.070Z,53.10
2017-12-01T03:53:41.996Z,49.90
2017-12-01T03:55:35.270Z,54.60
2017-12-01T03:56:35.177Z,48.90
2017-12-01T03:58:28.444Z,51.60
2017-12-01T03:59:28.355Z,49.40
2017-12-01T04:01:21.605Z,52.50
2017-12-01T04:02:21.532Z,51.30
2017-12-01T04:04:14.806Z,52.20
2017-12-01T04:05:14.713Z,53.60
2017-12-01T04:07:07.959Z,52.70
2017-12-01T04:08:07.889Z,50.30
2017-12-01T04:10:01.170Z,53.20
2017-12-01T04:11:01.068Z,49.20
2017-12-01T04:12:54.394Z,46.30
2017-12-01T04:13:54.304Z,54.30
2017-12-01T04:15:47.575Z,52.80
2017-12-01T04:16:47.487Z,55.10
2017-12-01T04:18:40.765Z,54.50
2017-12-01T04:19:40.664Z,57.80
2017-12-01T04:21:33.914Z,50.00
2017-12-01T04:22:33.846Z,49.50
2017-12-01T04:24:27.110Z,51.40
2017-12-01T04:25:27.019Z,52.00
2017-12-01T04:27:20.274Z,50.90
2017-12-01T04:28:20.198Z,55.10
2017-12-01T04:30:13.459Z,54.50
2017-12-01T04:31:13.365Z,53.90
2017-12-01T04:33:06.616Z,54.90
2017-12-01T04:34:06.546Z,53.50
2017-12-01T04:35:59.815Z,53.00
2017-12-01T04:36:59.722Z,57.70
2017-12-01T04:38:52.973Z,50.40
2017-12-01T04:39:52.902Z,54.30
2017-12-01T04:41:46.170Z,55.20
2017-12-01T04:42:46.079Z,54.30
2017-12-01T04:44:39.349Z,52.30
2017-12-01T04:45:39.258Z,56.70
2017-12-01T04:47:33.506Z,51.90
2017-12-01T04:48:33.435Z,57.30
2017-12-01T04:50:26.703Z,62.70
2017-12-01T04:51:26.616Z,56.60
2017-12-01T04:53:19.863Z,53.10
2017-12-01T04:54:19.791Z,57.70
2017-12-01T04:56:13.062Z,58.60
2017-12-01T04:57:12.970Z,58.60
2017-12-01T04:59:06.212Z,54.30
2017-12-01T05:00:06.141Z,61.80
2017-12-01T05:01:59.409Z,59.00
2017-12-01T05:02:59.317Z,51.30
2017-12-01T05:04:52.569Z,53.60
2017-12-01T05:05:52.495Z,55.50
2017-12-01T05:07:45.764Z,50.60
2017-12-01T05:08:45.674Z,51.50
2017-12-01T05:10:38.951Z,54.80
2017-12-01T05:11:38.854Z,53.20
2017-12-01T05:13:32.096Z,56.30
2017-12-01T05:14:32.020Z,54.10
2017-12-01T05:16:25.290Z,52.80
2017-12-01T05:17:25.199Z,53.70
2017-12-01T05:19:18.441Z,53.00
2017-12-01T05:20:18.368Z,52.90
2017-12-01T05:22:11.646Z,48.80
2017-12-01T05:23:11.557Z,48.20
2017-12-01T05:25:04.799Z,48.20
2017-12-01T05:26:04.726Z,52.30
2017-12-01T05:27:57.998Z,55.40
2017-12-01T05:28:57.903Z,51.30
2017-12-01T05:30:51.154Z,49.90
2017-12-01T05:31:51.133Z,49.00
2017-12-01T05:33:44.394Z,50.80
2017-12-01T05:34:44.302Z,51.10
2017-12-01T05:36:37.573Z,48.90
2017-12-01T05:37:37.481Z,47.60
2017-12-01T05:39:30.727Z,44.90
2017-12-01T05:40:30.650Z,49.50
2017-12-01T05:42:23.922Z,47.70
2017-12-01T05:43:23.830Z,47.00
2017-12-01T05:45:17.081Z,48.90
2017-12-01T05:46:17.008Z,48.20
2017-12-01T05:48:10.281Z,44.40
2017-12-01T05:49:10.186Z,45.10
2017-12-01T05:51:03.438Z,49.60
2017-12-01T05:52:03.365Z,45.80
2017-12-01T05:53:56.634Z,43.40
2017-12-01T05:54:56.542Z,48.50
2017-12-01T05:56:49.814Z,48.30
2017-12-01T05:57:49.722Z,48.70
2017-12-01T05:59:42.966Z,42.90
2017-12-01T06:00:42.897Z,48.60
2017-12-01T06:02:36.165Z,48.60
2017-12-01T06:03:36.074Z,46.80
2017-12-01T06:05:29.322Z,41.40
2017-12-01T06:06:29.250Z,48.60
2017-12-01T06:08:22.523Z,44.70
2017-12-01T06:09:22.432Z,40.90
2017-12-01T06:11:15.684Z,45.60
2017-12-01T06:12:15.610Z,44.20
2017-12-01T06:14:08.882Z,48.50
2017-12-01T06:15:08.790Z,44.40
2017-12-01T06:17:02.063Z,42.90
2017-12-01T06:18:01.972Z,44.10
2017-12-01T06:19:55.214Z,43.40
2017-12-01T06:20:55.144Z,46.90
2017-12-01T06:22:48.414Z,43.00
2017-12-01T06:23:48.325Z,43.90
2017-12-01T06:25:41.572Z,47.90
2017-12-01T06:26:41.503Z,51.90
2017-12-01T06:28:34.769Z,49.30
2017-12-01T06:29:34.676Z,46.20
2017-12-01T06:31:27.933Z,49.40
2017-12-01T06:32:27.860Z,51.90
2017-12-01T06:34:21.128Z,47.70
2017-12-01T06:35:21.037Z,49.40
2017-12-01T06:37:14.308Z,49.60
2017-12-01T06:38:14.209Z,46.60
2017-12-01T06:40:07.466Z,52.90
2017-12-01T06:41:07.394Z,46.80
2017-12-01T06:43:00.718Z,52.40
2017-12-01T06:44:00.573Z,50.90
2017-12-01T06:45:53.833Z,47.30
2017-12-01T06:46:53.760Z,47.30
2017-12-01T06:48:47.032Z,51.10
2017-12-01T06:49:46.940Z,49.40
2017-12-01T06:51:40.191Z,48.40
2017-12-01T06:52:40.120Z,46.10
2017-12-01T06:54:33.393Z,55.50
2017-12-01T06:55:33.305Z,49.40
2017-12-01T06:57:26.572Z,48.60
2017-12-01T06:58:26.481Z,50.60
2017-12-01T07:00:19.770Z,49.10
2017-12-01T07:01:19.699Z,53.40
2017-12-01T07:03:12.967Z,50.40
2017-12-01T07:04:12.878Z,54.00
2017-12-01T07:06:06.129Z,51.40
2017-12-01T07:07:06.057Z,54.50
2017-12-01T07:08:59.320Z,49.60
2017-12-01T07:09:59.228Z,53.80
2017-12-01T07:11:53.487Z,52.50
2017-12-01T07:12:53.411Z,49.90
2017-12-01T07:14:46.681Z,55.50
2017-12-01T07:15:46.591Z,58.10
2017-12-01T07:17:39.859Z,54.90
2017-12-01T07:18:39.771Z,54.60
2017-12-01T07:20:33.020Z,63.50
2017-12-01T07:21:32.948Z,58.00
2017-12-01T07:23:26.217Z,54.20
2017-12-01T07:24:26.127Z,55.30
2017-12-01T07:26:19.378Z,54.20
2017-12-01T07:27:19.305Z,54.60
2017-12-01T07:29:12.571Z,53.70
2017-12-01T07:30:12.474Z,51.70
2017-12-01T07:32:05.728Z,55.40
2017-12-01T07:33:05.655Z,59.90
2017-12-01T07:34:58.925Z,53.00
2017-12-01T07:35:58.834Z,53.40
2017-12-01T07:37:52.104Z,50.60
2017-12-01T07:38:52.013Z,54.20
2017-12-01T07:40:45.284Z,50.00
2017-12-01T07:41:45.193Z,55.60
2017-12-01T07:43:38.462Z,49.00
2017-12-01T07:44:38.371Z,53.40
2017-12-01T07:46:31.622Z,52.50
2017-12-01T07:47:31.551Z,55.20
2017-12-01T07:49:24.814Z,53.30
2017-12-01T07:50:24.719Z,50.70
2017-12-01T07:52:17.979Z,58.10
2017-12-01T07:53:17.887Z,52.50
2017-12-01T07:55:11.128Z,57.10
2017-12-01T07:56:11.053Z,56.80
2017-12-01T07:58:04.333Z,55.30
2017-12-01T07:59:04.246Z,56.10
2017-12-01T08:00:57.484Z,56.70
2017-12-01T08:01:57.411Z,52.20
2017-12-01T08:03:50.669Z,49.30
2017-12-01T08:04:50.572Z,51.70
2017-12-01T08:06:43.818Z,50.60
2017-12-01T08:07:43.744Z,50.40
2017-12-01T08:09:37.059Z,51.50
2017-12-01T08:10:36.911Z,47.40
2017-12-01T08:12:30.172Z,56.30
2017-12-01T08:13:30.080Z,51.10
2017-12-01T08:15:23.321Z,51.30
2017-12-01T08:16:23.248Z,58.50
2017-12-01T08:18:16.509Z,49.70
2017-12-01T08:19:16.416Z,46.60
2017-12-01T08:21:09.658Z,50.20
2017-12-01T08:22:09.584Z,50.90
2017-12-01T08:24:02.844Z,51.00
2017-12-01T08:25:02.752Z,51.30
2017-12-01T08:26:56.007Z,51.70
2017-12-01T08:27:55.932Z,51.10
2017-12-01T08:29:49.199Z,49.70
2017-12-01T08:30:49.105Z,52.60
2017-12-01T08:32:42.366Z,49.80
2017-12-01T08:33:42.273Z,49.20
2017-12-01T08:35:35.519Z,52.20
2017-12-01T08:36:35.440Z,52.30
2017-12-01T08:38:28.702Z,48.70
2017-12-01T08:39:28.616Z,47.90
2017-12-01T08:41:21.849Z,46.90
2017-12-01T08:42:21.798Z,49.60
2017-12-01T08:44:15.035Z,49.00
2017-12-01T08:45:14.943Z,53.10
2017-12-01T08:47:08.185Z,51.90
2017-12-01T08:48:08.112Z,55.30
2017-12-01T08:50:01.395Z,49.00
2017-12-01T08:51:01.305Z,52.80
2017-12-01T08:52:54.583Z,52.60
2017-12-01T08:53:54.480Z,51.30
2017-12-01T08:55:47.714Z,49.90
2017-12-01T08:56:47.634Z,52.40
2017-12-01T08:58:40.900Z,49.30
2017-12-01T08:59:40.809Z,49.60
2017-12-01T09:01:34.055Z,52.80
2017-12-01T09:02:33.978Z,50.70
2017-12-01T09:04:27.242Z,51.10
2017-12-01T09:05:27.150Z,54.50
2017-12-01T09:07:20.399Z,53.20
2017-12-01T09:08:20.326Z,53.40
2017-12-01T09:10:13.596Z,50.80
2017-12-01T09:11:13.504Z,52.80
2017-12-01T09:13:06.767Z,51.80
2017-12-01T09:14:06.675Z,55.20
2017-12-01T09:15:59.919Z,50.20
2017-12-01T09:16:59.847Z,54.60
2017-12-01T09:18:53.106Z,54.70
2017-12-01T09:19:53.012Z,56.20
2017-12-01T09:21:46.254Z,49.70
2017-12-01T09:22:46.187Z,50.30
2017-12-01T09:24:39.451Z,53.70
2017-12-01T09:25:39.350Z,50.20
2017-12-01T09:27:32.594Z,50.90
2017-12-01T09:28:32.518Z,54.20
2017-12-01T09:30:25.776Z,47.50
2017-12-01T09:31:25.685Z,50.20
2017-12-01T09:33:18.955Z,44.70
2017-12-01T09:34:18.870Z,44.20
2017-12-01T09:36:12.106Z,49.60
2017-12-01T09:37:12.033Z,53.80
2017-12-01T09:39:05.323Z,47.80
2017-12-01T09:40:05.228Z,46.20
2017-12-01T09:41:58.477Z,46.90
2017-12-01T09:42:58.397Z,47.90
2017-12-01T09:44:51.661Z,39.50
2017-12-01T09:45:51.568Z,45.10
2017-12-01T09:47:44.822Z,41.30
2017-12-01T09:48:44.752Z,39.20
2017-12-01T09:50:38.014Z,46.80
2017-12-01T09:51:37.922Z,42.90
2017-12-01T09:53:31.186Z,43.70
2017-12-01T09:54:31.095Z,39.60
2017-12-01T09:56:24.341Z,38.30
2017-12-01T09:57:24.268Z,41.80
2017-12-01T09:59:17.532Z,42.50
2017-12-01T10:00:17.442Z,39.60
2017-12-01T10:02:10.699Z,39.00
2017-12-01T10:03:10.627Z,39.60
2017-12-01T10:05:03.893Z,42.40
2017-12-01T10:06:03.799Z,37.50
2017-12-01T10:07:57.043Z,36.30
2017-12-01T10:08:56.970Z,36.50
2017-12-01T10:10:50.237Z,35.90
2017-12-01T10:11:50.144Z,32.90
2017-12-01T10:13:43.407Z,35.80
2017-12-01T10:14:43.315Z,39.50
2017-12-01T10:16:36.566Z,39.30
2017-12-01T10:17:36.491Z,38.80
2017-12-01T10:19:29.760Z,40.10
2017-12-01T10:20:29.670Z,37.50
2017-12-01T10:22:22.918Z,39.60
2017-12-01T10:23:22.848Z,30.50
2017-12-01T10:25:16.117Z,35.70
2017-12-01T10:26:16.028Z,35.40
2017-12-01T10:28:09.387Z,35.00
2017-12-01T10:29:09.317Z,37.00
2017-12-01T10:31:02.581Z,35.70
2017-12-01T10:32:02.495Z,36.30
2017-12-01T10:33:55.783Z,35.50
2017-12-01T10:34:55.694Z,38.40
2017-12-01T10:36:48.943Z,33.90
2017-12-01T10:37:48.873Z,34.30
2017-12-01T10:39:42.143Z,29.80
2017-12-01T10:40:42.054Z,33.10
2017-12-01T10:42:35.386Z,32.00
2017-12-01T10:43:35.314Z,31.00
2017-12-01T10:45:28.578Z,31.20
2017-12-01T10:46:28.490Z,35.20
2017-12-01T10:48:21.737Z,28.50
2017-12-01T10:49:21.668Z,29.20
2017-12-01T10:51:14.932Z,32.90
2017-12-01T10:52:14.842Z,35.90
2017-12-01T10:54:08.110Z,31.50
2017-12-01T10:55:08.022Z,30.20
2017-12-01T10:57:01.285Z,31.90
2017-12-01T10:58:01.213Z,31.50
2017-12-01T10:59:54.476Z,35.50
2017-12-01T11:00:54.388Z,34.20
2017-12-01T11:02:47.633Z,32.90
2017-12-01T11:03:47.562Z,33.20
2017-12-01T11:05:40.825Z,36.30
2017-12-01T11:06:40.758Z,38.80
2017-12-01T11:08:33.980Z,36.50
2017-12-01T11:09:33.908Z,32.10
2017-12-01T11:11:27.172Z,34.90
2017-12-01T11:12:27.080Z,34.10
2017-12-01T11:14:20.345Z,34.60
2017-12-01T11:15:20.255Z,35.20
2017-12-01T11:17:13.508Z,31.60
2017-12-01T11:18:13.438Z,31.90
2017-12-01T11:20:06.713Z,30.00
2017-12-01T11:21:06.622Z,27.20
2017-12-01T11:22:59.878Z,28.50
2017-12-01T11:23:59.804Z,28.10
2017-12-01T11:25:53.080Z,22.50
2017-12-01T11:26:52.991Z,22.50
2017-12-01T11:28:46.246Z,16.80
2017-12-01T11:29:46.176Z,19.10
2017-12-01T11:31:39.452Z,21.40
2017-12-01T11:32:39.364Z,21.10
2017-12-01T11:34:32.647Z,16.70
2017-12-01T11:35:32.556Z,19.00
2017-12-01T11:37:25.806Z,17.40
2017-12-01T11:38:25.737Z,15.80
2017-12-01T11:40:19.011Z,14.80
2017-12-01T11:41:18.921Z,14.70
2017-12-01T11:43:12.185Z,18.40
2017-12-01T11:44:12.123Z,18.20
2017-12-01T11:46:05.400Z,20.10
2017-12-01T11:47:05.311Z,19.40
2017-12-01T11:48:58.559Z,18.80
2017-12-01T11:49:58.488Z,21.50
2017-12-01T11:51:51.754Z,22.10
2017-12-01T11:52:51.666Z,17.80
2017-12-01T11:54:44.928Z,21.40
2017-12-01T11:55:44.840Z,19.80
2017-12-01T11:57:38.090Z,21.00
2017-12-01T11:58:38.013Z,24.40
2017-12-01T12:00:31.294Z,19.40
2017-12-01T12:01:31.200Z,19.10
2017-12-01T12:03:24.454Z,16.70
2017-12-01T12:04:24.382Z,16.80
2017-12-01T12:06:17.657Z,16.10
2017-12-01T12:07:17.568Z,13.40
2017-12-01T12:09:10.819Z,16.10
2017-12-01T12:10:10.752Z,16.10
2017-12-01T12:12:04.041Z,13.70
2017-12-01T12:13:03.952Z,15.80
2017-12-01T12:14:57.224Z,14.40
2017-12-01T12:15:57.136Z,16.90
2017-12-01T12:17:50.389Z,16.30
2017-12-01T12:18:50.320Z,16.30
2017-12-01T12:20:43.594Z,17.00
2017-12-01T12:21:43.504Z,19.50
2017-12-01T12:23:36.769Z,22.80
2017-12-01T12:24:36.696Z,18.60
2017-12-01T12:26:29.971Z,20.60
2017-12-01T12:27:29.925Z,20.00
2017-12-01T12:29:23.131Z,17.10
2017-12-01T12:30:23.058Z,18.10
2017-12-01T12:32:16.332Z,17.40
2017-12-01T12:33:16.243Z,18.90
2017-12-01T12:35:10.366Z,23.40
2017-12-01T12:36:10.305Z,20.20
2017-12-01T12:38:03.538Z,21.30
2017-12-01T12:39:03.461Z,21.70
2017-12-01T12:40:56.750Z,20.90
2017-12-01T12:41:56.660Z,22.00
2017-12-01T12:43:49.917Z,28.30
2017-12-01T12:44:49.845Z,28.10
2017-12-01T12:46:43.138Z,31.60
2017-12-01T12:47:43.049Z,30.40
2017-12-01T12:49:36.302Z,30.00
2017-12-01T12:50:36.231Z,32.70
2017-12-01T12:52:29.506Z,34.80
2017-12-01T12:53:29.415Z,34.80
2017-12-01T12:55:22.707Z,34.10
2017-12-01T12:56:22.623Z,33.90
2017-12-01T12:58:15.872Z,33.60
2017-12-01T12:59:15.802Z,33.40
2017-12-01T13:01:10.079Z,41.10
2017-12-01T13:02:09.986Z,39.40
2017-12-01T13:04:03.240Z,33.30
2017-12-01T13:05:03.170Z,36.40
2017-12-01T13:06:56.443Z,33.90
2017-12-01T13:07:56.355Z,34.90
2017-12-01T13:09:49.651Z,38.20
2017-12-01T13:10:49.540Z,38.00
2017-12-01T13:12:42.796Z,36.20
2017-12-01T13:13:42.724Z,42.00
2017-12-01T13:15:35.997Z,36.00
2017-12-01T13:16:35.908Z,40.30
2017-12-01T13:18:29.163Z,40.30
2017-12-01T13:19:29.091Z,40.30
2017-12-01T13:21:22.362Z,43.50
2017-12-01T13:22:22.275Z,38.90
2017-12-01T13:24:15.528Z,37.20
2017-12-01T13:25:15.459Z,38.10
2017-12-01T13:27:08.732Z,37.20
2017-12-01T13:28:08.640Z,40.40
2017-12-01T13:30:01.915Z,36.70
2017-12-01T13:31:01.821Z,38.60
2017-12-01T13:32:55.076Z,35.60
2017-12-01T13:33:55.006Z,37.70
2017-12-01T13:35:48.276Z,38.90
2017-12-01T13:36:48.188Z,40.10
2017-12-01T13:38:41.439Z,37.30
2017-12-01T13:39:41.370Z,38.80
2017-12-01T13:41:34.643Z,36.80
2017-12-01T13:42:34.553Z,34.10
2017-12-01T13:44:27.808Z,38.20
2017-12-01T13:45:27.736Z,44.00
2017-12-01T13:47:21.002Z,38.90
2017-12-01T13:48:20.917Z,40.50
2017-12-01T13:50:14.189Z,38.00
2017-12-01T13:51:14.101Z,36.70
2017-12-01T13:53:07.380Z,44.30
2017-12-01T13:54:07.310Z,41.00
2017-12-01T13:56:00.583Z,38.20
2017-12-01T13:57:00.491Z,41.60
2017-12-01T13:58:53.744Z,37.20
2017-12-01T13:59:53.671Z,36.20
2017-12-01T14:01:46.944Z,37.50
2017-12-01T14:02:46.854Z,39.20
2017-12-01T14:04:40.116Z,37.20
2017-12-01T14:05:40.049Z,37.90
2017-12-01T14:07:33.404Z,34.10
2017-12-01T14:08:33.310Z,36.90
2017-12-01T14:10:26.574Z,38.80
2017-12-01T14:11:26.483Z,37.60
2017-12-01T14:13:19.737Z,40.10
2017-12-01T14:14:19.666Z,37.20
2017-12-01T14:16:12.937Z,40.20
2017-12-01T14:17:12.848Z,40.70
2017-12-01T14:19:06.091Z,43.60
2017-12-01T14:20:06.026Z,38.70
2017-12-01T14:21:59.286Z,39.10
2017-12-01T14:22:59.189Z,41.80
2017-12-01T14:24:52.442Z,35.30
2017-12-01T14:25:52.371Z,39.30
2017-12-01T14:27:45.645Z,36.50
2017-12-01T14:28:45.554Z,37.80
2017-12-01T14:30:38.826Z,43.90
2017-12-01T14:31:38.736Z,38.10
2017-12-01T14:33:31.991Z,40.20
2017-12-01T14:34:31.919Z,39.80
2017-12-01T14:36:24.695Z,36.40
2017-12-01T14:37:24.606Z,41.00
2017-12-01T14:39:17.850Z,43.20
2017-12-01T14:40:17.779Z,44.60
2017-12-01T14:42:11.040Z,37.20
2017-12-01T14:43:10.948Z,33.30
2017-12-01T14:45:04.498Z,38.00
2017-12-01T14:46:04.120Z,34.60
2017-12-01T14:47:57.402Z,38.20
2017-12-01T14:48:57.309Z,35.90
2017-12-01T14:50:50.580Z,36.80
2017-12-01T14:51:50.491Z,37.00
2017-12-01T14:53:43.774Z,43.10
2017-12-01T14:54:43.701Z,42.10
2017-12-01T14:56:36.980Z,34.80
2017-12-01T14:57:36.885Z,35.50
2017-12-01T14:59:30.129Z,39.40
2017-12-01T15:00:30.055Z,39.10
2017-12-01T15:02:23.398Z,37.10
2017-12-01T15:03:23.306Z,36.30
2017-12-01T15:05:16.560Z,37.60
2017-12-01T15:06:16.489Z,35.10
2017-12-01T15:08:09.759Z,38.60
2017-12-01T15:09:09.673Z,39.20
2017-12-01T15:11:02.445Z,37.60
2017-12-01T15:12:02.360Z,40.20
2017-12-01T15:13:55.607Z,41.70
2017-12-01T15:14:55.537Z,42.40
2017-12-01T15:16:49.838Z,41.90
2017-12-01T15:17:49.726Z,40.60
2017-12-01T15:19:42.982Z,40.50
2017-12-01T15:20:42.897Z,46.00
2017-12-01T15:22:36.170Z,41.20
2017-12-01T15:23:36.079Z,43.40
2017-12-01T15:25:29.385Z,40.40
2017-12-01T15:26:29.306Z,44.30
2017-12-01T15:28:22.579Z,39.60
2017-12-01T15:29:22.489Z,46.20
2017-12-01T15:31:15.762Z,43.00
2017-12-01T15:32:15.672Z,41.10
2017-12-01T15:34:08.925Z,46.90
2017-12-01T15:35:08.853Z,43.60
2017-12-01T15:37:02.125Z,40.50
2017-12-01T15:38:02.035Z,41.40
2017-12-01T15:39:55.382Z,44.70
2017-12-01T15:40:55.310Z,47.40
2017-12-01T15:42:48.658Z,40.70
2017-12-01T15:43:48.527Z,41.00
2017-12-01T15:45:41.735Z,38.90
2017-12-01T15:46:41.667Z,39.60
2017-12-01T15:48:34.936Z,41.30
2017-12-01T15:49:34.844Z,39.70
2017-12-01T15:51:28.111Z,43.20
2017-12-01T15:52:28.019Z,42.20
2017-12-01T15:54:21.262Z,44.40
2017-12-01T15:55:21.189Z,39.40
2017-12-01T15:57:14.473Z,40.00
2017-12-01T15:58:14.379Z,40.80
2017-12-01T16:00:07.633Z,40.60
2017-12-01T16:01:07.561Z,42.10
2017-12-01T16:03:00.831Z,41.80
2017-12-01T16:04:00.724Z,42.80
2017-12-01T16:05:53.972Z,40.60
2017-12-01T16:06:53.899Z,42.10
2017-12-01T16:08:47.168Z,45.90
2017-12-01T16:09:47.079Z,42.00
2017-12-01T16:11:40.351Z,40.10
2017-12-01T16:12:40.258Z,41.80
2017-12-01T16:14:33.513Z,43.60
2017-12-01T16:15:33.444Z,42.10
2017-12-01T16:17:26.712Z,44.30
2017-12-01T16:18:26.619Z,38.60
2017-12-01T16:20:19.873Z,36.40
2017-12-01T16:21:19.804Z,42.50
2017-12-01T16:23:13.071Z,40.80
2017-12-01T16:24:12.995Z,37.90
2017-12-01T16:26:06.237Z,42.00
2017-12-01T16:27:06.161Z,40.30
2017-12-01T16:28:59.432Z,42.90
2017-12-01T16:29:59.348Z,42.90
2017-12-01T16:31:52.603Z,42.60
2017-12-01T16:33:00.225Z,42.30
2017-12-01T16:34:45.794Z,42.90
2017-12-01T16:35:45.692Z,44.70
2017-12-01T16:37:38.963Z,37.60
2017-12-01T16:38:38.871Z,41.90
2017-12-01T16:40:32.119Z,41.40
2017-12-01T16:41:32.052Z,44.80
2017-12-01T16:43:25.398Z,42.80
2017-12-01T16:44:25.307Z,41.20
2017-12-01T16:46:18.559Z,41.10
2017-12-01T16:47:18.485Z,41.60
2017-12-01T16:49:11.758Z,44.50
2017-12-01T16:50:11.668Z,45.80
2017-12-01T16:52:04.939Z,44.50
2017-12-01T16:53:04.848Z,43.60
2017-12-01T16:54:58.097Z,44.00
2017-12-01T16:55:58.025Z,46.70
2017-12-01T16:57:51.399Z,47.20
2017-12-01T16:58:51.309Z,44.60
2017-12-01T17:00:44.558Z,45.60
2017-12-01T17:01:44.505Z,46.80
2017-12-01T17:03:37.756Z,45.80
2017-12-01T17:04:37.664Z,44.80
2017-12-01T17:06:30.918Z,44.10
2017-12-01T17:07:30.841Z,48.40
2017-12-01T17:09:24.106Z,40.20
2017-12-01T17:10:24.013Z,39.60
2017-12-01T17:12:17.289Z,45.90
2017-12-01T17:13:17.194Z,45.50
2017-12-01T17:15:10.447Z,46.90
2017-12-01T17:16:10.373Z,42.00
2017-12-01T17:18:03.646Z,41.70
2017-12-01T17:19:03.555Z,45.80
2017-12-01T17:20:56.806Z,46.80
2017-12-01T17:21:56.733Z,47.60
2017-12-01T17:23:50.012Z,48.40
2017-12-01T17:24:49.917Z,46.70
2017-12-01T17:26:43.154Z,46.90
2017-12-01T17:27:43.081Z,43.70
2017-12-01T17:29:36.345Z,44.40
2017-12-01T17:30:36.252Z,46.80
2017-12-01T17:32:29.517Z,54.70
2017-12-01T17:33:29.420Z,47.20
2017-12-01T17:35:22.663Z,49.30
2017-12-01T17:36:22.588Z,47.50
2017-12-01T17:38:15.858Z,43.00
2017-12-01T17:39:15.771Z,48.40
2017-12-01T17:41:09.029Z,49.80
2017-12-01T17:42:08.955Z,48.00
2017-12-01T17:44:02.248Z,46.70
2017-12-01T17:45:02.133Z,43.50
2017-12-01T17:46:55.378Z,48.50
2017-12-01T17:47:55.304Z,47.40
2017-12-01T17:49:48.568Z,43.90
2017-12-01T17:50:48.474Z,48.20
2017-12-01T17:52:41.748Z,49.40
2017-12-01T17:53:41.656Z,46.90
2017-12-01T17:55:34.898Z,51.50
2017-12-01T17:56:34.825Z,54.50
2017-12-01T17:58:28.090Z,53.90
2017-12-01T17:59:27.990Z,53.20
2017-12-01T18:01:21.232Z,50.00
2017-12-01T18:02:21.159Z,51.30
2017-12-01T18:04:14.418Z,47.50
2017-12-01T18:05:14.328Z,47.60
2017-12-01T18:07:07.568Z,54.90
2017-12-01T18:08:07.494Z,55.10
2017-12-01T18:10:00.759Z,51.20
2017-12-01T18:11:00.674Z,45.60
2017-12-01T18:12:53.932Z,53.50
2017-12-01T18:13:53.839Z,55.10
2017-12-01T18:15:47.082Z,54.80
2017-12-01T18:16:47.007Z,52.40
2017-12-01T18:18:40.291Z,56.60
2017-12-01T18:19:40.187Z,56.60
2017-12-01T18:21:33.433Z,57.00
2017-12-01T18:22:33.353Z,56.00
2017-12-01T18:24:26.614Z,54.50
2017-12-01T18:25:26.521Z,56.60
2017-12-01T18:27:19.762Z,60.00
2017-12-01T18:28:19.694Z,59.70
2017-12-01T18:30:12.948Z,56.00
2017-12-01T18:31:12.857Z,58.80
2017-12-01T18:33:06.131Z,59.70
2017-12-01T18:34:06.039Z,61.70
2017-12-01T18:35:59.383Z,55.20